Time;durP1;ratioP1;P1;durP2;ratioP2;P2;SDS_P1;SDS_P2;PMS_P1;PMS_P2;Temp;Humidity;BMP_temperature;BMP_pressure;BME280_temperature;BME280_humidity;BME280_pressure;Samples;Min_cycle;Max_cycle;Signal;HPM_P1;HPM_P2
2023/01/11 00:01:03;;;;;;;2.88;1.55;;;;;;;6.23;98.12;99545.81;5048866;28;20033;-28
2023/01/11 00:03:30;;;;;;;1.90;1.30;;;;;;;6.02;99.48;99521.16;5048797;28;20104;-28
2023/01/11 00:05:56;;;;;;;4.47;2.78;;;;;;;6.07;99.55;99538.28;5048386;28;20033;-29
2023/01/11 00:08:25;;;;;;;1.55;1.27;;;;;;;6.20;98.74;99544.41;5048440;28;20108;-29
2023/01/11 00:10:51;;;;;;;1.63;1.20;;;;;;;6.17;99.13;99552.78;5048897;28;20036;-28
2023/01/11 00:13:17;;;;;;;3.63;1.52;;;;;;;6.12;100.00;99560.50;5051627;28;20511;-29
2023/01/11 00:15:42;;;;;;;2.55;1.27;;;;;;;6.21;100.00;99553.16;5052593;28;20044;-28
2023/01/11 00:18:09;;;;;;;2.40;1.35;;;;;;;6.13;99.13;99535.66;5052296;28;20074;-27
2023/01/11 00:20:37;;;;;;;2.58;1.65;;;;;;;6.22;97.98;99565.41;5050911;28;20563;-29
2023/01/11 00:23:03;;;;;;;3.22;1.77;;;;;;;6.11;98.71;99563.31;5034875;28;20111;-29
2023/01/11 00:25:28;;;;;;;2.60;1.60;;;;;;;6.10;97.39;99567.00;5050900;28;20163;-28
2023/01/11 00:27:54;;;;;;;3.65;1.90;;;;;;;6.10;98.85;99573.13;5051024;28;20045;-28
2023/01/11 00:30:19;;;;;;;3.53;1.80;;;;;;;6.04;97.61;99556.19;5052089;28;20037;-27
2023/01/11 00:32:45;;;;;;;3.42;1.48;;;;;;;6.04;98.42;99573.91;5052221;28;20390;-27
2023/01/11 00:35:11;;;;;;;3.05;1.83;;;;;;;6.05;98.83;99570.28;5052164;28;20127;-30
2023/01/11 00:37:37;;;;;;;2.88;1.92;;;;;;;5.93;98.12;99559.41;5052294;28;20452;-27
2023/01/11 00:40:02;;;;;;;3.08;1.90;;;;;;;6.08;98.80;99574.34;5050791;28;20481;-27
2023/01/11 00:47:56;;;;;;;2.90;2.05;;;;;;;6.15;98.24;99577.78;5051928;28;20167;-26
2023/01/11 00:50:21;;;;;;;4.80;2.25;;;;;;;5.98;99.61;99575.53;5051867;28;20456;-28
2023/01/11 00:52:47;;;;;;;4.70;1.95;;;;;;;6.01;98.80;99558.44;5052014;28;20029;-27
2023/01/11 00:55:12;;;;;;;3.25;2.00;;;;;;;6.01;99.20;99574.34;5051853;28;20493;-26
2023/01/11 00:57:37;;;;;;;3.05;2.00;;;;;;;6.04;100.00;99582.66;5051759;28;20029;-27
2023/01/11 01:00:04;;;;;;;6.05;1.95;;;;;;;5.89;100.00;99552.09;5051491;28;20025;-28
2023/01/11 01:02:31;;;;;;;9.73;5.00;;;;;;;6.10;100.00;99569.66;5052048;28;20037;-29
2023/01/11 01:04:56;;;;;;;11.93;6.25;;;;;;;6.18;100.00;99566.81;5051746;28;20035;-30
2023/01/11 01:07:22;;;;;;;9.00;4.85;;;;;;;6.11;100.00;99573.91;5051760;28;20029;-29
2023/01/11 01:09:47;;;;;;;5.72;2.90;;;;;;;6.19;100.00;99576.38;5051704;28;20029;-28
2023/01/11 01:14:24;;;;;;;14.77;7.75;;;;;;;6.22;100.00;99568.03;5049881;28;20029;-28
2023/01/11 01:14:58;;;;;;;4.07;2.17;;;;;;;5.95;100.00;99546.03;5051530;28;20522;-27
2023/01/11 01:17:23;;;;;;;2.55;1.60;;;;;;;6.12;100.00;99570.28;5051858;28;20029;-27
2023/01/11 01:19:49;;;;;;;3.10;2.00;;;;;;;6.12;100.00;99575.56;5051947;28;20029;-27
2023/01/11 01:22:14;;;;;;;2.97;1.85;;;;;;;6.24;100.00;99579.25;5051226;28;20033;-28
2023/01/11 01:24:40;;;;;;;5.75;3.92;;;;;;;6.19;100.00;99571.06;5048687;28;20060;-28
2023/01/11 01:27:05;;;;;;;3.90;1.98;;;;;;;6.23;98.77;99583.72;5050928;28;20056;-29
2023/01/11 01:29:30;;;;;;;1.88;1.60;;;;;;;6.14;96.58;99569.03;5051086;28;20100;-29
2023/01/11 01:31:56;;;;;;;4.15;2.10;;;;;;;6.11;97.68;99581.88;5051312;28;20060;-27
2023/01/11 01:34:21;;;;;;;5.40;2.72;;;;;;;5.94;97.34;99565.53;5050711;28;20025;-29
2023/01/11 01:36:47;;;;;;;8.27;3.20;;;;;;;5.96;97.72;99582.03;5051128;28;20078;-27
2023/01/11 01:39:12;;;;;;;9.95;4.57;;;;;;;5.94;97.00;99584.84;5050947;28;20052;-27
2023/01/11 01:41:37;;;;;;;9.18;4.35;;;;;;;5.98;98.58;99590.59;5050798;28;20112;-27
2023/01/11 01:44:41;;;;;;;5.72;2.63;;;;;;;6.12;96.84;99586.16;5050772;28;20033;-27
2023/01/11 01:47:06;;;;;;;7.05;3.60;;;;;;;5.98;97.43;99585.31;5050854;28;20028;-28
2023/01/11 01:49:31;;;;;;;11.52;4.75;;;;;;;5.96;98.18;99590.78;5049319;28;20029;-26
2023/01/11 01:51:57;;;;;;;9.45;4.00;;;;;;;5.92;98.59;99586.06;5050598;28;20459;-29
2023/01/11 01:54:28;;;;;;;5.95;3.30;;;;;;;5.83;99.08;99586.25;5050420;28;20513;-28
2023/01/11 01:57:00;;;;;;;7.03;3.33;;;;;;;5.86;99.77;99586.88;5050770;28;20044;-28
2023/01/11 01:59:28;;;;;;;6.95;3.42;;;;;;;5.91;100.00;99590.56;5049300;28;20036;-30
2023/01/11 02:01:55;;;;;;;7.07;3.47;;;;;;;5.87;99.54;99568.16;5050607;28;20029;-27
2023/01/11 02:04:40;;;;;;;5.93;2.80;;;;;;;6.06;98.56;99592.25;5048984;28;20021;-31
2023/01/11 02:07:10;;;;;;;6.55;2.97;;;;;;;6.03;97.56;99588.19;5050758;28;20052;-29
2023/01/11 02:10:03;;;;;;;6.72;3.72;;;;;;;6.12;96.96;99591.44;5050313;28;20104;-27
2023/01/11 02:12:34;;;;;;;5.63;2.45;;;;;;;6.07;97.02;99583.28;5050523;28;20040;-27
2023/01/11 02:15:02;;;;;;;6.25;3.05;;;;;;;5.90;96.26;99572.22;5048814;28;20033;-26
2023/01/11 02:17:27;;;;;;;7.47;3.15;;;;;;;5.76;98.32;99574.03;5050604;28;20095;-28
2023/01/11 02:20:12;;;;;;;5.82;2.72;;;;;;;5.84;98.41;99595.00;5050321;28;20028;-29
2023/01/11 02:23:08;;;;;;;4.00;2.40;;;;;;;5.90;99.30;99604.78;5049042;28;20037;-27
2023/01/11 02:25:52;;;;;;;3.63;1.98;;;;;;;5.90;99.63;99598.69;5050245;28;20528;-27
2023/01/11 02:28:47;;;;;;;3.85;2.05;;;;;;;5.97;100.00;99600.38;5049719;28;20017;-27
2023/01/11 02:31:42;;;;;;;4.63;2.75;;;;;;;5.80;99.29;99594.63;5048967;28;20039;-27
2023/01/11 02:34:13;;;;;;;4.78;2.97;;;;;;;5.85;99.69;99596.66;5049783;28;20429;-28
2023/01/11 02:37:09;;;;;;;5.32;3.00;;;;;;;5.95;100.00;99596.31;5048416;28;20098;-28
2023/01/11 02:39:49;;;;;;;4.25;2.53;;;;;;;5.79;99.05;99597.44;5050111;28;20029;-32
2023/01/11 02:45:49;;;;;;;4.55;2.80;;;;;;;5.89;97.28;99579.38;5049768;28;20028;-27
2023/01/11 02:48:26;;;;;;;5.40;2.63;;;;;;;5.85;97.54;99601.94;5049636;28;20021;-28
2023/01/11 02:51:03;;;;;;;3.45;2.25;;;;;;;5.91;96.09;99595.84;5050308;28;20057;-27
2023/01/11 02:53:35;;;;;;;4.45;2.08;;;;;;;5.75;95.19;99593.56;5049957;28;20029;-29
2023/01/11 02:56:06;;;;;;;3.38;2.10;;;;;;;5.75;95.83;99596.22;5048151;28;20025;-29
2023/01/11 02:58:35;;;;;;;2.67;1.80;;;;;;;5.64;96.91;99590.47;5048106;28;20067;-29
2023/01/11 03:01:01;;;;;;;3.05;1.83;;;;;;;5.73;96.61;99588.47;5049356;28;20106;-28
2023/01/11 03:03:26;;;;;;;4.80;2.40;;;;;;;5.77;96.06;99599.47;5049453;28;20378;-27
2023/01/11 03:06:04;;;;;;;5.07;2.08;;;;;;;5.64;95.66;99594.97;5049412;28;20036;-26
2023/01/11 03:08:47;;;;;;;3.75;1.98;;;;;;;5.60;96.35;99597.19;5047956;28;20036;-30
2023/01/11 03:14:42;;;;;;;3.90;2.03;;;;;;;5.57;95.83;99591.47;5049308;28;20578;-26
2023/01/11 03:17:29;;;;;;;2.88;1.52;;;;;;;5.61;95.89;99606.75;5047685;28;20106;-27
2023/01/11 03:20:11;;;;;;;3.47;1.88;;;;;;;5.66;94.29;99597.41;5049664;28;20036;-26
2023/01/11 03:23:15;;;;;;;3.42;1.90;;;;;;;5.44;93.32;99594.88;5048004;28;20029;-28
2023/01/11 03:26:14;;;;;;;3.78;1.95;;;;;;;5.54;94.44;99616.50;5048690;28;20041;-27
2023/01/11 03:29:12;;;;;;;2.30;1.40;;;;;;;5.76;92.07;99613.72;5047656;28;20587;-30
2023/01/11 03:31:40;;;;;;;;;;;;;;;5.62;93.91;99616.31;5049195;28;20420;-26
2023/01/11 03:34:24;;;;;;;3.80;1.70;;;;;;;5.61;93.64;99619.97;5048534;28;20003;-27
2023/01/11 03:36:55;;;;;;;2.22;1.20;;;;;;;5.69;92.35;99623.47;5049513;28;20025;-26
2023/01/11 03:39:29;;;;;;;3.10;1.48;;;;;;;5.58;93.94;99630.94;5049268;28;20111;-28
2023/01/11 03:41:58;;;;;;;3.25;1.40;;;;;;;5.63;93.88;99617.94;5048739;28;20528;-27
2023/01/11 03:44:27;;;;;;;3.30;1.60;;;;;;;5.74;93.47;99624.50;5048810;28;20027;-30
2023/01/11 03:47:00;;;;;;;3.22;1.70;;;;;;;5.55;94.79;99628.69;5048111;28;20029;-27
2023/01/11 03:49:35;;;;;;;1.98;1.20;;;;;;;5.66;94.06;99635.28;5047359;28;20029;-27
2023/01/11 03:52:02;;;;;;;4.13;1.92;;;;;;;5.41;94.84;99619.91;5048507;28;20624;-27
2023/01/11 03:54:30;;;;;;;5.97;2.90;;;;;;;5.70;95.60;99652.38;5048659;28;20078;-27
2023/01/11 03:57:14;;;;;;;5.75;3.35;;;;;;;5.76;95.37;99656.03;5047283;28;20047;-29
2023/01/11 03:59:40;;;;;;;3.85;2.08;;;;;;;5.36;98.29;99640.81;5047433;28;20037;-28
2023/01/11 04:02:18;;;;;;;5.25;2.60;;;;;;;5.51;98.36;99653.91;5048494;28;20182;-28
2023/01/11 04:04:43;;;;;;;6.90;3.97;;;;;;;5.42;98.13;99644.50;5047266;28;20025;-27
2023/01/11 04:07:09;;;;;;;5.15;2.83;;;;;;;5.50;97.47;99670.00;5048658;28;20097;-27
2023/01/11 04:09:34;;;;;;;4.57;2.40;;;;;;;5.46;98.71;99672.19;5048256;28;20196;-28
2023/01/11 04:12:00;;;;;;;5.45;2.70;;;;;;;5.52;98.18;99671.41;5048399;28;20100;-30
2023/01/11 04:14:25;;;;;;;4.13;2.22;;;;;;;5.54;97.06;99666.75;5047182;28;20473;-27
2023/01/11 04:16:50;;;;;;;3.92;1.88;;;;;;;5.52;96.59;99650.25;5048665;28;20029;-28
2023/01/11 04:19:16;;;;;;;3.65;2.10;;;;;;;5.56;98.11;99674.50;5048535;28;20132;-27
2023/01/11 04:21:41;;;;;;;4.18;2.08;;;;;;;5.60;96.95;99673.91;5048482;28;20036;-32
2023/01/11 04:24:07;;;;;;;4.38;1.90;;;;;;;5.59;98.35;99679.38;5047817;28;20040;-27
2023/01/11 04:26:32;;;;;;;3.58;1.92;;;;;;;5.58;98.44;99691.78;5048582;28;20049;-27
2023/01/11 04:28:58;;;;;;;3.53;1.75;;;;;;;5.61;98.79;99674.72;5047327;28;20017;-28
2023/01/11 04:31:23;;;;;;;4.55;2.38;;;;;;;5.74;98.07;99689.81;5048306;28;20075;-29
2023/01/11 04:33:49;;;;;;;3.47;2.03;;;;;;;5.76;98.22;99675.41;5048399;28;20029;-27
2023/01/11 04:36:14;;;;;;;5.38;2.72;;;;;;;5.72;98.43;99675.97;5048173;28;20090;-26
2023/01/11 04:38:40;;;;;;;3.72;2.08;;;;;;;5.61;99.28;99680.81;5048226;28;20412;-29
2023/01/11 04:43:53;;;;;;;20.80;8.85;;;;;;;5.35;100.00;99683.31;5048537;28;20102;-28
2023/01/11 04:46:18;;;;;;;131.38;49.58;;;;;;;5.34;100.00;99710.78;5047939;28;20575;-31
2023/01/11 04:48:44;;;;;;;53.80;22.25;;;;;;;5.42;100.00;99713.25;5048274;28;20025;-29
2023/01/11 04:51:09;;;;;;;41.30;20.80;;;;;;;5.44;100.00;99719.19;5046587;28;20128;-26
2023/01/11 04:53:35;;;;;;;45.90;23.05;;;;;;;5.54;100.00;99701.13;5048154;28;20028;-28
2023/01/11 04:56:03;;;;;;;21.75;11.45;;;;;;;5.33;100.00;99715.25;5046747;28;20025;-34
2023/01/11 04:58:30;;;;;;;28.30;14.93;;;;;;;5.26;100.00;99724.94;5049941;28;20111;-30
2023/01/11 05:00:55;;;;;;;8.00;4.22;;;;;;;5.32;100.00;99712.78;5051971;28;20036;-28
2023/01/11 05:03:21;;;;;;;7.63;3.65;;;;;;;5.36;100.00;99696.34;5051905;28;20033;-30
2023/01/11 05:06:00;;;;;;;5.53;2.92;;;;;;;5.44;100.00;99711.25;5051445;28;20408;-29
2023/01/11 05:08:27;;;;;;;5.43;2.90;;;;;;;5.56;100.00;99720.28;5051921;28;20060;-28
2023/01/11 05:10:54;;;;;;;5.53;3.13;;;;;;;5.48;100.00;99720.41;5050453;28;20035;-27
2023/01/11 05:13:19;;;;;;;6.78;2.75;;;;;;;5.58;99.73;99728.03;5051457;28;20496;-29
2023/01/11 05:15:46;;;;;;;5.00;2.85;;;;;;;5.39;99.15;99693.31;5051514;28;20036;-29
2023/01/11 05:18:12;;;;;;;6.60;2.75;;;;;;;5.34;100.00;99727.44;5051108;28;20025;-28
2023/01/11 05:20:37;;;;;;;8.70;4.13;;;;;;;5.47;100.00;99726.72;5049995;28;20101;-29
2023/01/11 05:23:03;;;;;;;6.80;3.20;;;;;;;5.49;100.00;99735.25;5051554;28;20493;-29
2023/01/11 05:25:28;;;;;;;6.18;3.45;;;;;;;5.38;100.00;99743.75;5049900;28;20049;-30
2023/01/11 05:27:53;;;;;;;5.85;3.15;;;;;;;5.33;100.00;99752.28;5051682;28;20033;-31
2023/01/11 05:30:19;;;;;;;5.50;3.05;;;;;;;5.22;100.00;99740.38;5051031;28;20466;-28
2023/01/11 05:32:44;;;;;;;6.10;3.22;;;;;;;5.35;100.00;99754.69;5051470;28;20051;-29
2023/01/11 05:35:10;;;;;;;8.30;3.83;;;;;;;5.30;100.00;99747.34;5051154;28;20132;-28
2023/01/11 05:37:37;;;;;;;7.82;3.50;;;;;;;5.44;100.00;99749.06;5049920;28;20558;-28
2023/01/11 05:40:05;;;;;;;8.73;3.65;;;;;;;5.26;100.00;99730.22;5050810;28;20028;-27
2023/01/11 05:42:31;;;;;;;8.77;4.57;;;;;;;5.26;100.00;99755.88;5049589;28;20070;-27
2023/01/11 05:47:40;;;;;;;28.95;15.77;;;;;;;5.34;100.00;99745.16;5050702;28;20032;-29
2023/01/11 05:50:06;;;;;;;29.17;15.27;;;;;;;5.52;100.00;99745.47;5050538;28;20025;-28
2023/01/11 05:52:31;;;;;;;24.42;14.27;;;;;;;5.46;100.00;99748.91;5049621;28;20059;-28
2023/01/11 05:54:58;;;;;;;23.20;13.15;;;;;;;5.30;100.00;99747.34;5050628;28;20102;-26
2023/01/11 05:57:23;;;;;;;19.35;11.00;;;;;;;5.23;100.00;99757.88;5049677;28;20025;-28
2023/01/11 05:59:49;;;;;;;13.35;7.80;;;;;;;5.47;100.00;99739.13;5050620;28;20055;-26
2023/01/11 06:02:14;;;;;;;15.70;10.20;;;;;;;5.27;100.00;99744.25;5050227;28;20560;-28
2023/01/11 06:04:39;;;;;;;12.15;7.75;;;;;;;5.47;100.00;99766.38;5049578;28;20082;-28
2023/01/11 06:07:05;;;;;;;12.13;6.70;;;;;;;5.39;100.00;99766.53;5050725;28;20116;-28
2023/01/11 06:09:31;;;;;;;7.70;4.47;;;;;;;5.39;100.00;99766.53;5050080;28;20090;-27
2023/01/11 06:11:56;;;;;;;9.13;3.72;;;;;;;5.28;100.00;99770.53;5050433;28;20021;-26
2023/01/11 06:14:21;;;;;;;6.35;2.88;;;;;;;5.36;100.00;99782.78;5050333;28;20033;-27
2023/01/11 06:16:47;;;;;;;6.50;3.53;;;;;;;5.49;100.00;99793.44;5049016;28;20025;-32
2023/01/11 06:19:12;;;;;;;6.97;3.60;;;;;;;5.51;100.00;99796.72;5048727;28;20533;-30
2023/01/11 06:21:38;;;;;;;7.75;3.33;;;;;;;5.70;100.00;99787.31;5048163;28;20082;-27
2023/01/11 06:24:04;;;;;;;6.55;3.40;;;;;;;5.75;100.00;99795.47;5049865;28;20025;-26
2023/01/11 06:26:29;;;;;;;6.53;3.53;;;;;;;5.52;100.00;99784.34;5049844;28;20041;-26
2023/01/11 06:28:55;;;;;;;6.28;3.00;;;;;;;5.43;100.00;99788.94;5050018;28;20029;-29
2023/01/11 06:31:20;;;;;;;7.35;3.80;;;;;;;5.53;100.00;99784.13;5049941;28;20108;-29
2023/01/11 06:33:46;;;;;;;6.45;3.83;;;;;;;5.61;100.00;99805.13;5048557;28;20824;-26
2023/01/11 06:36:12;;;;;;;6.20;3.83;;;;;;;5.41;100.00;99783.84;5050295;28;20036;-27
2023/01/11 06:38:39;;;;;;;7.10;3.80;;;;;;;5.70;100.00;99799.69;5049828;28;20443;-28
2023/01/11 06:41:07;;;;;;;10.88;5.10;;;;;;;5.80;100.00;99806.31;5049967;28;20029;-27
2023/01/11 06:43:33;;;;;;;22.55;9.20;;;;;;;5.79;100.00;99802.00;5048508;28;20017;-33
2023/01/11 06:45:58;;;;;;;15.20;7.32;;;;;;;5.93;100.00;99826.72;5048246;28;20496;-32
2023/01/11 06:48:24;;;;;;;8.45;4.80;;;;;;;5.86;100.00;99831.16;5048328;28;20028;-29
2023/01/11 06:50:53;;;;;;;6.93;4.43;;;;;;;5.76;100.00;99820.94;5048049;28;20078;-29
2023/01/11 06:53:19;;;;;;;8.52;4.85;;;;;;;6.08;100.00;99849.66;5049025;28;20025;-27
2023/01/11 06:55:48;;;;;;;6.45;3.78;;;;;;;6.19;100.00;99846.44;5048989;28;20037;-30
2023/01/11 06:58:13;;;;;;;6.05;3.67;;;;;;;6.17;99.45;99835.22;5048662;28;20580;-26
2023/01/11 07:00:39;;;;;;;7.15;3.70;;;;;;;6.31;99.32;99836.13;5049265;28;20119;-27
2023/01/11 07:03:05;;;;;;;6.70;3.08;;;;;;;6.52;97.85;99829.88;5048274;28;20028;-30
2023/01/11 07:05:33;;;;;;;5.55;2.92;;;;;;;6.84;96.26;99852.22;5049253;28;20116;-27
2023/01/11 07:07:58;;;;;;;6.07;3.23;;;;;;;6.74;95.49;99841.19;5049303;28;20099;-32
2023/01/11 07:10:24;;;;;;;5.70;3.00;;;;;;;6.90;93.61;99864.69;5047940;28;20569;-26
2023/01/11 07:12:50;;;;;;;5.45;2.80;;;;;;;6.86;94.14;99858.13;5049200;28;20067;-27
2023/01/11 07:15:16;;;;;;;5.30;2.72;;;;;;;6.97;92.22;99841.66;5049477;28;20487;-27
2023/01/11 07:17:42;;;;;;;11.73;4.95;;;;;;;7.11;93.47;99861.09;5047797;28;20036;-27
2023/01/11 07:20:08;;;;;;;20.15;8.23;;;;;;;7.04;93.81;99844.31;5049312;28;20021;-28
2023/01/11 07:22:35;;;;;;;9.77;4.25;;;;;;;7.11;93.73;99844.31;5048395;28;20032;-27
2023/01/11 07:25:01;;;;;;;10.57;4.93;;;;;;;7.27;90.68;99867.81;5049014;28;20029;-27
2023/01/11 07:27:27;;;;;;;23.30;11.25;;;;;;;7.04;92.10;99855.75;5047626;28;20127;-27
2023/01/11 07:29:52;;;;;;;16.88;9.30;;;;;;;7.20;91.23;99849.25;5048833;28;20035;-28
2023/01/11 07:32:19;;;;;;;25.80;13.40;;;;;;;7.03;91.44;99871.88;5048893;28;20031;-29
2023/01/11 07:34:44;;;;;;;18.10;8.82;;;;;;;7.11;89.53;99877.00;5048771;28;20408;-27
2023/01/11 07:37:10;;;;;;;19.65;8.50;;;;;;;6.96;90.54;99873.69;5047647;28;20025;-26
2023/01/11 07:39:35;;;;;;;16.42;7.85;;;;;;;7.00;90.76;99877.56;5047526;28;20037;-29
2023/01/11 07:44:46;;;;;;;25.27;16.85;;;;;;;7.10;90.17;99878.00;5048988;28;20479;-27
2023/01/11 07:47:12;;;;;;;16.63;8.50;;;;;;;7.11;91.39;99892.06;5048821;28;20020;-27
2023/01/11 07:49:37;;;;;;;16.25;6.63;;;;;;;7.09;90.96;99894.09;5048750;28;20032;-28
2023/01/11 07:52:03;;;;;;;11.07;4.60;;;;;;;6.99;90.55;99889.19;5048494;28;20021;-27
2023/01/11 07:54:28;;;;;;;10.55;4.60;;;;;;;7.07;91.03;99902.28;5048479;28;20025;-28
2023/01/11 07:56:55;;;;;;;10.50;4.40;;;;;;;6.87;91.69;99901.41;5048937;28;20081;-29
2023/01/11 07:59:21;;;;;;;13.48;6.15;;;;;;;6.86;90.31;99887.31;5047338;28;20033;-30
2023/01/11 08:01:47;;;;;;;18.80;7.40;;;;;;;6.98;89.79;99906.91;5048664;28;20029;-28
2023/01/11 08:04:13;;;;;;;18.40;7.43;;;;;;;6.95;89.23;99909.16;5048353;28;20036;-26
2023/01/11 08:06:39;;;;;;;10.93;4.90;;;;;;;7.04;90.48;99918.56;5048592;28;20036;-28
2023/01/11 08:09:05;;;;;;;9.05;4.38;;;;;;;7.15;88.86;99922.47;5048343;28;20074;-28
2023/01/11 08:16:59;;;;;;;4.78;2.70;;;;;;;7.15;90.85;99935.72;5048704;28;20086;-29
2023/01/11 08:19:24;;;;;;;6.18;2.60;;;;;;;7.17;91.80;99929.22;5048582;28;20029;-26
2023/01/11 08:21:51;;;;;;;5.18;2.78;;;;;;;7.16;89.70;99921.47;5048129;28;20025;-27
2023/01/11 08:24:17;;;;;;;7.10;2.55;;;;;;;7.27;90.41;99922.72;5047000;28;20037;-27
2023/01/11 08:26:42;;;;;;;5.22;2.67;;;;;;;7.39;88.63;99937.03;5046815;28;20087;-27
2023/01/11 08:29:08;;;;;;;5.28;3.17;;;;;;;7.49;88.11;99945.41;5048464;28;20104;-28
2023/01/11 08:31:33;;;;;;;6.18;3.40;;;;;;;7.71;88.59;99943.41;5046889;28;20061;-27
2023/01/11 08:33:59;;;;;;;4.30;2.28;;;;;;;7.91;85.95;99956.69;5048963;28;20021;-39
2023/01/11 08:36:26;;;;;;;5.97;2.22;;;;;;;7.84;83.62;99963.81;5052236;28;20033;-26
2023/01/11 08:38:55;;;;;;;3.78;1.77;;;;;;;7.78;84.23;99961.97;5050938;28;20047;-28
2023/01/11 08:41:21;;;;;;;4.38;2.20;;;;;;;7.66;84.02;99964.41;5052155;28;20472;-31
2023/01/11 08:43:48;;;;;;;4.80;2.10;;;;;;;7.74;85.08;99966.88;5050844;28;20028;-27
2023/01/11 08:46:14;;;;;;;3.75;2.25;;;;;;;7.79;82.57;99974.25;5051916;28;20047;-28
2023/01/11 08:48:40;;;;;;;3.70;1.92;;;;;;;7.73;85.46;99956.47;5051832;28;20025;-26
2023/01/11 08:51:06;;;;;;;4.07;2.20;;;;;;;7.76;86.23;99970.13;5052131;28;20099;-27
2023/01/11 08:53:31;;;;;;;4.57;2.03;;;;;;;7.88;86.64;99972.22;5051762;28;20021;-27
2023/01/11 08:55:57;;;;;;;5.85;2.15;;;;;;;7.77;84.82;99958.50;5051956;28;20049;-27
2023/01/11 08:58:22;;;;;;;5.15;2.40;;;;;;;7.90;85.71;99976.28;5051734;28;20374;-28
2023/01/11 09:00:48;;;;;;;5.40;3.33;;;;;;;7.95;82.67;99957.09;5051662;28;20035;-28
2023/01/11 09:03:13;;;;;;;7.05;3.63;;;;;;;8.04;86.25;99977.91;5052034;28;20021;-28
2023/01/11 09:05:40;;;;;;;15.50;7.15;;;;;;;8.02;83.55;99963.22;5051762;28;20116;-26
2023/01/11 09:08:07;;;;;;;12.38;5.20;;;;;;;8.15;84.95;99981.81;5051334;28;20025;-31
2023/01/11 09:10:33;;;;;;;12.38;6.32;;;;;;;8.08;85.16;99981.00;5051623;28;20413;-28
2023/01/11 09:12:58;;;;;;;11.43;6.03;;;;;;;8.21;83.14;99982.81;5051504;28;20060;-27
2023/01/11 09:15:24;;;;;;;13.77;6.45;;;;;;;8.11;82.92;99939.91;5051571;28;20060;-28
2023/01/11 09:17:51;;;;;;;11.00;5.93;;;;;;;8.34;85.83;99956.25;5051355;28;20025;-29
2023/01/11 09:20:18;;;;;;;7.43;3.75;;;;;;;8.40;86.33;99955.44;5050023;28;20033;-27
2023/01/11 09:22:49;;;;;;;8.30;4.10;;;;;;;8.48;85.07;99948.28;5050295;28;20025;-28
2023/01/11 09:25:15;;;;;;;7.45;3.60;;;;;;;8.28;84.16;99958.94;5051156;28;20505;-26
2023/01/11 09:27:48;;;;;;;5.60;2.88;;;;;;;8.35;83.19;99957.88;5049919;28;20062;-27
2023/01/11 09:30:16;;;;;;;9.00;3.17;;;;;;;8.41;83.78;99967.72;5049910;28;20053;-27
2023/01/11 09:32:42;;;;;;;6.80;3.22;;;;;;;8.37;83.26;99949.69;5050712;28;20489;-27
2023/01/11 09:35:08;;;;;;;5.95;3.17;;;;;;;8.37;85.03;99955.00;5051374;28;20048;-27
2023/01/11 09:37:40;;;;;;;5.25;2.60;;;;;;;8.46;84.35;99959.13;5050733;28;20420;-28
2023/01/11 09:40:11;;;;;;;10.07;5.03;;;;;;;8.60;83.53;99949.25;5049432;28;20111;-28
2023/01/11 09:42:41;;;;;;;7.05;3.53;;;;;;;8.50;82.26;99935.59;5049570;28;20123;-29
2023/01/11 09:45:22;;;;;;;6.97;3.17;;;;;;;8.30;82.15;99933.78;5049718;28;20036;-29
2023/01/11 09:48:02;;;;;;;8.95;3.88;;;;;;;8.24;82.82;99918.66;5049632;28;20059;-29
2023/01/11 09:50:30;;;;;;;12.23;6.63;;;;;;;8.50;81.81;99960.34;5049581;28;20029;-26
2023/01/11 09:52:58;;;;;;;;;;;;;;;8.45;84.10;99973.44;5051292;28;20028;-27
2023/01/11 09:55:41;;;;;;;5.65;2.85;;;;;;;8.23;84.78;99959.53;5049453;28;19908;-29
2023/01/11 09:58:39;;;;;;;7.63;4.18;;;;;;;8.37;82.71;99971.78;5049281;28;20041;-27
2023/01/11 10:01:23;;;;;;;12.53;6.83;;;;;;;8.54;85.66;99968.72;5050686;28;20528;-26
2023/01/11 10:04:25;;;;;;;9.48;4.05;;;;;;;8.72;85.15;99982.16;5049594;28;20259;-27
2023/01/11 10:06:54;;;;;;;14.98;7.82;;;;;;;8.89;83.00;99989.69;5049137;28;20520;-30
2023/01/11 10:09:29;;;;;;;10.07;4.95;;;;;;;9.03;82.12;99991.25;5050351;28;20108;-27
2023/01/11 10:12:15;;;;;;;7.80;3.58;;;;;;;8.72;83.63;99982.16;5050490;28;20087;-26
2023/01/11 10:14:57;;;;;;;11.48;6.35;;;;;;;8.78;84.25;99981.31;5050625;28;20033;-28
2023/01/11 10:17:36;;;;;;;7.45;3.90;;;;;;;8.80;83.91;99984.59;5049071;28;20035;-29
2023/01/11 10:20:22;;;;;;;8.68;4.13;;;;;;;8.67;83.46;99950.09;5048833;28;20037;-28
2023/01/11 10:22:51;;;;;;;8.70;4.25;;;;;;;8.43;84.19;99955.03;5049994;28;20079;-31
2023/01/11 10:25:32;;;;;;;11.88;6.50;;;;;;;8.54;83.84;99960.72;5048852;28;20071;-28
2023/01/11 10:28:06;;;;;;;22.40;11.88;;;;;;;8.70;84.74;99954.16;5050054;28;20461;-29
2023/01/11 10:31:06;;;;;;;7.13;3.67;;;;;;;8.93;85.03;99970.47;5050148;28;20044;-30
2023/01/11 10:36:56;;;;;;;13.68;8.23;;;;;;;9.07;83.31;99970.38;5034127;28;20035;-29
2023/01/11 10:40:13;;;;;;;12.70;8.50;;;;;;;8.96;84.91;99971.88;5033300;28;20052;-28
2023/01/11 10:43:08;;;;;;;8.15;4.30;;;;;;;8.99;83.46;99971.44;5048497;28;20032;-39
2023/01/11 10:45:49;;;;;;;7.40;3.60;;;;;;;8.89;85.03;99968.41;5049111;28;20063;-29
2023/01/11 10:48:22;;;;;;;7.10;4.07;;;;;;;8.60;85.55;99943.94;5048722;28;20102;-33
2023/01/11 10:51:09;;;;;;;9.27;5.60;;;;;;;8.63;86.44;99944.34;5048859;28;20033;-29
2023/01/11 10:54:11;;;;;;;9.65;4.65;;;;;;;8.87;86.14;99959.81;5047571;28;20398;-29
2023/01/11 10:57:16;;;;;;;6.57;3.38;;;;;;;8.85;85.62;99957.41;5047926;28;20033;-29
2023/01/11 10:59:55;;;;;;;8.73;4.80;;;;;;;8.71;85.74;99953.94;5048458;28;20041;-33
2023/01/11 11:02:26;;;;;;;8.68;4.05;;;;;;;8.50;87.23;99948.88;5049186;28;20029;-29
2023/01/11 11:05:14;;;;;;;7.55;4.40;;;;;;;8.51;87.95;99953.19;5049505;28;20040;-33
2023/01/11 11:07:51;;;;;;;8.52;4.70;;;;;;;8.45;88.18;99926.41;5049186;28;20033;-27
2023/01/11 11:10:32;;;;;;;7.57;3.78;;;;;;;8.73;86.67;99949.25;5048838;28;20029;-28
2023/01/11 11:13:19;;;;;;;8.10;4.20;;;;;;;8.79;88.54;99953.72;5049398;28;20112;-29
2023/01/11 11:16:03;;;;;;;6.28;3.70;;;;;;;8.81;88.31;99957.00;5049302;28;20025;-33
2023/01/11 11:18:29;;;;;;;7.30;4.40;;;;;;;8.92;86.91;99936.09;5047811;28;20127;-30
2023/01/11 11:21:01;;;;;;;7.68;4.47;;;;;;;9.01;86.76;99967.56;5048932;28;20021;-30
2023/01/11 11:23:27;;;;;;;9.80;4.00;;;;;;;8.96;87.12;99969.22;5047844;28;20033;-28
2023/01/11 11:25:59;;;;;;;6.53;3.80;;;;;;;8.97;87.84;99957.53;5047644;28;20063;-29
2023/01/11 11:28:26;;;;;;;6.10;3.75;;;;;;;8.92;88.03;99962.69;5047544;28;20459;-28
2023/01/11 11:30:55;;;;;;;41.05;17.77;;;;;;;8.76;87.86;99940.03;5049102;28;20104;-30
2023/01/11 11:33:38;;;;;;;16.23;8.35;;;;;;;8.89;88.42;99941.81;5048769;28;20143;-33
2023/01/11 11:36:06;;;;;;;9.05;4.30;;;;;;;8.87;89.38;99958.00;5049024;28;20025;-28
2023/01/11 11:38:38;;;;;;;6.63;3.72;;;;;;;8.94;88.46;99952.66;5048998;28;20517;-29
2023/01/11 11:41:05;;;;;;;7.78;4.75;;;;;;;8.80;90.12;99963.31;5048945;28;20071;-28
2023/01/11 11:43:36;;;;;;;7.97;3.90;;;;;;;8.81;91.13;99961.50;5047480;28;20552;-28
2023/01/11 11:46:23;;;;;;;8.85;4.72;;;;;;;8.99;90.20;99968.78;5047219;28;20124;-27
2023/01/11 11:49:11;;;;;;;9.37;5.23;;;;;;;9.03;91.10;99959.34;5048581;28;20037;-27
2023/01/11 11:51:37;;;;;;;10.95;5.18;;;;;;;8.96;92.26;99964.69;5048842;28;20150;-27
2023/01/11 11:54:03;;;;;;;9.75;5.90;;;;;;;8.90;91.56;99957.56;5048182;28;20024;-31
2023/01/11 11:56:31;;;;;;;10.95;6.82;;;;;;;8.75;92.89;99957.81;5048431;28;20036;-29
2023/01/11 11:58:58;;;;;;;;;;;;;;;8.89;93.40;99960.44;5049229;28;20036;-32
2023/01/11 12:01:29;;;;;;;11.65;5.53;;;;;;;8.55;95.04;99938.47;5048582;28;20379;-33
2023/01/11 12:03:58;;;;;;;10.82;6.20;;;;;;;8.67;96.69;99952.75;5048541;28;20033;-29
2023/01/11 12:06:26;;;;;;;11.82;6.95;;;;;;;8.74;95.79;99950.84;5046859;28;20028;-28
2023/01/11 12:08:53;;;;;;;10.50;5.72;;;;;;;8.81;95.50;99951.66;5050418;28;20033;-28
2023/01/11 12:11:28;;;;;;;10.30;5.97;;;;;;;8.60;96.73;99936.81;5053251;28;20078;-28
2023/01/11 12:14:05;;;;;;;9.05;6.00;;;;;;;8.66;96.50;99937.78;5051309;28;20036;-27
2023/01/11 12:16:36;;;;;;;11.95;7.63;;;;;;;8.70;97.51;99947.00;5051252;28;20079;-28
2023/01/11 12:19:02;;;;;;;13.00;8.30;;;;;;;8.79;97.94;99959.03;5051060;28;20044;-30
2023/01/11 12:21:31;;;;;;;11.38;6.57;;;;;;;8.87;97.27;99952.69;5052821;28;20025;-28
2023/01/11 12:24:06;;;;;;;12.27;7.18;;;;;;;8.83;97.19;99959.44;5051159;28;20033;-28